Time;durP1;ratioP1;P1;durP2;ratioP2;P2;SDS_P1;SDS_P2;PMS_P1;PMS_P2;Temp;Humidity;BMP_temperature;BMP_pressure;BME280_temperature;BME280_humidity;BME280_pressure;Samples;Min_cycle;Max_cycle;Signal;HPM_P1;HPM_P2
2022/10/10 00:00:29;;;;;;;;;;;9.10;99.90;;;;;;5058480;28;19961;-74
2022/10/10 00:02:54;;;;;;;;;;;9.00;99.90;;;;;;5057894;28;19916;-73
2022/10/10 00:05:20;;;;;;;;;;;9.00;99.90;;;;;;5076003;28;20265;-74
2022/10/10 00:07:45;;;;;;;;;;;9.00;99.90;;;;;;5075890;28;19908;-74
2022/10/10 00:10:11;;;;;;;;;;;9.60;99.90;;;;;;5076019;28;20368;-74
2022/10/10 00:12:36;;;;;;;;;;;9.00;99.90;;;;;;5058164;28;19911;-74
2022/10/10 00:15:02;;;;;;;;;;;9.00;99.90;;;;;;5075902;28;19904;-73
2022/10/10 00:17:28;;;;;;;;;;;9.00;99.90;;;;;;5075847;28;20013;-74
2022/10/10 00:19:53;;;;;;;;;;;9.00;99.90;;;;;;5057786;28;19999;-74
2022/10/10 00:22:19;;;;;;;;;;;9.00;99.90;;;;;;5057803;28;19904;-74
2022/10/10 00:24:44;;;;;;;;;;;9.00;99.90;;;;;;5075970;28;20410;-74
2022/10/10 00:27:10;;;;;;;;;;;9.00;99.90;;;;;;5075465;28;20281;-74
2022/10/10 00:29:35;;;;;;;;;;;9.00;99.90;;;;;;5057542;28;19935;-73
2022/10/10 00:32:01;;;;;;;;;;;9.30;99.90;;;;;;5057548;28;20361;-74
2022/10/10 00:34:26;;;;;;;;;;;8.90;99.90;;;;;;5057747;28;19991;-74
2022/10/10 00:36:51;;;;;;;;;;;8.90;99.90;;;;;;5075521;28;19911;-74
2022/10/10 00:39:17;;;;;;;;;;;8.90;99.90;;;;;;5057604;28;20011;-75
2022/10/10 00:41:42;;;;;;;;;;;8.90;99.90;;;;;;5077850;28;20372;-75
2022/10/10 00:44:10;;;;;;;;;;;8.90;99.90;;;;;;5059779;28;19954;-74
2022/10/10 00:46:36;;;;;;;;;;;8.90;99.90;;;;;;5075179;28;19911;-75
2022/10/10 00:49:03;;;;;;;;;;;8.90;99.90;;;;;;5075025;28;19904;-76
2022/10/10 00:51:29;;;;;;;;;;;8.90;99.90;;;;;;5056931;28;19951;-75
2022/10/10 00:53:57;;;;;;;;;;;8.90;99.90;;;;;;5075412;28;19915;-75
2022/10/10 00:56:27;;;;;;;;;;;9.00;99.90;;;;;;5075011;28;20356;-75
2022/10/10 00:58:55;;;;;;;;;;;8.90;99.90;;;;;;5056996;28;19904;-75
2022/10/10 01:01:20;;;;;;;;;;;8.90;99.90;;;;;;5075175;28;19966;-75
2022/10/10 01:03:46;;;;;;;;;;;8.90;99.90;;;;;;5056844;28;19912;-75
2022/10/10 01:06:12;;;;;;;;;;;8.90;99.90;;;;;;5074758;28;19908;-74
2022/10/10 01:08:37;;;;;;;;;;;8.80;99.90;;;;;;5074593;28;19904;-74
2022/10/10 01:11:18;;;;;;;;;;;8.80;99.90;;;;;;5074557;28;20042;-75
2022/10/10 01:14:03;;;;;;;;;;;8.80;99.90;;;;;;5074755;28;19904;-74
2022/10/10 01:16:45;;;;;;;;;;;8.80;99.90;;;;;;5036420;28;19912;-75
2022/10/10 01:19:23;;;;;;;;;;;8.70;99.90;;;;;;5074725;28;20003;-75
2022/10/10 01:21:48;;;;;;;;;;;8.70;99.90;;;;;;5056638;28;19904;-75
2022/10/10 01:24:20;;;;;;;;;;;8.70;99.90;;;;;;5056580;28;19908;-75
2022/10/10 01:27:03;;;;;;;;;;;8.70;99.90;;;;;;5075048;28;19908;-75
2022/10/10 01:29:44;;;;;;;;;;;8.70;99.90;;;;;;5056399;28;19904;-75
2022/10/10 01:32:15;;;;;;;;;;;8.70;99.90;;;;;;5056589;28;19904;-76
2022/10/10 01:35:00;;;;;;;;;;;8.70;99.90;;;;;;5056589;28;19969;-76
2022/10/10 01:37:38;;;;;;;;;;;8.70;99.90;;;;;;5073681;28;19911;-75
2022/10/10 01:40:08;;;;;;;;;;;8.70;99.90;;;;;;5056412;28;20018;-75
2022/10/10 01:42:37;;;;;;;;;;;8.70;99.90;;;;;;5056019;28;20010;-76
2022/10/10 01:45:03;;;;;;;;;;;8.70;99.90;;;;;;5074037;28;19908;-74
2022/10/10 01:47:28;;;;;;;;;;;8.70;99.90;;;;;;5074039;28;19912;-74
2022/10/10 01:49:57;;;;;;;;;;;8.60;99.90;;;;;;5055923;28;19908;-74
2022/10/10 01:52:41;;;;;;;;;;;8.60;99.90;;;;;;5074313;28;19905;-74
2022/10/10 01:55:22;;;;;;;;;;;8.60;99.90;;;;;;5056088;28;19950;-75
2022/10/10 01:57:47;;;;;;;;;;;8.50;99.90;;;;;;5055868;28;19904;-76
2022/10/10 02:00:14;;;;;;;;;;;8.50;99.90;;;;;;5055369;28;20275;-76
2022/10/10 02:02:58;;;;;;;;;;;8.60;99.90;;;;;;5055860;28;19913;-75
2022/10/10 02:05:31;;;;;;;;;;;8.60;99.90;;;;;;5055804;28;19904;-75
2022/10/10 02:07:59;;;;;;;;;;;8.60;99.90;;;;;;5055972;28;20003;-75
2022/10/10 02:10:29;;;;;;;;;;;8.50;99.90;;;;;;5055581;28;19916;-75
2022/10/10 02:12:56;;;;;;;;;;;8.50;99.90;;;;;;5075051;28;19908;-77
2022/10/10 02:15:24;;;;;;;;;;;8.60;99.90;;;;;;5073991;28;19950;-78
2022/10/10 02:17:50;;;;;;;;;;;8.60;99.90;;;;;;5073835;28;19911;-78
2022/10/10 02:20:18;;;;;;;;;;;8.50;99.90;;;;;;5055580;28;20352;-78
2022/10/10 02:22:43;;;;;;;;;;;8.50;99.90;;;;;;5055924;28;20294;-78
2022/10/10 02:25:15;;;;;;;;;;;8.50;99.90;;;;;;5056398;28;19912;-76
2022/10/10 02:27:51;;;;;;;;;;;8.40;99.90;;;;;;5056141;28;20258;-75
2022/10/10 02:30:17;;;;;;;;;;;8.40;99.90;;;;;;5055468;28;20364;-75
2022/10/10 02:32:47;;;;;;;;;;;8.40;99.90;;;;;;5055712;28;19904;-75
2022/10/10 02:35:17;;;;;;;;;;;8.40;99.90;;;;;;5073546;28;19987;-75
2022/10/10 02:37:43;;;;;;;;;;;8.40;99.90;;;;;;5073391;28;19946;-75
2022/10/10 02:40:10;;;;;;;;;;;8.30;99.90;;;;;;5073306;28;19912;-75
2022/10/10 02:42:36;;;;;;;;;;;8.30;99.90;;;;;;5056450;28;19911;-75
2022/10/10 02:45:02;;;;;;;;;;;8.70;99.90;;;;;;5073479;28;19954;-74
2022/10/10 02:47:28;;;;;;;;;;;8.30;99.90;;;;;;5055633;28;19966;-74
2022/10/10 02:49:56;;;;;;;;;;;8.30;99.90;;;;;;5073274;28;19912;-74
2022/10/10 02:52:22;;;;;;;;;;;8.20;99.90;;;;;;5073368;28;19906;-74
2022/10/10 02:54:47;;;;;;;;;;;8.20;99.90;;;;;;5073370;28;20372;-74
2022/10/10 02:57:13;;;;;;;;;;;8.20;99.90;;;;;;5073272;28;19904;-74
2022/10/10 02:59:39;;;;;;;;;;;8.20;99.90;;;;;;5073150;28;19905;-74
2022/10/10 03:02:05;;;;;;;;;;;8.10;99.90;;;;;;5073392;28;19922;-74
2022/10/10 03:04:31;;;;;;;;;;;8.10;99.90;;;;;;5073237;28;19908;-74
2022/10/10 03:06:56;;;;;;;;;;;8.10;99.90;;;;;;5055501;28;20404;-74
2022/10/10 03:09:22;;;;;;;;;;;8.10;99.90;;;;;;5073183;28;19904;-74
2022/10/10 03:11:47;;;;;;;;;;;8.10;99.90;;;;;;5075070;28;19909;-74
2022/10/10 03:14:13;;;;;;;;;;;8.00;99.90;;;;;;5076930;28;20261;-74
2022/10/10 03:16:38;;;;;;;;;;;8.00;99.90;;;;;;5058942;28;19905;-74
2022/10/10 03:19:07;;;;;;;;;;;7.90;99.90;;;;;;5058836;28;19915;-74
2022/10/10 03:21:33;;;;;;;;;;;7.80;99.90;;;;;;5058752;28;19905;-75
2022/10/10 03:23:58;;;;;;;;;;;7.80;99.90;;;;;;5076714;28;20296;-75
2022/10/10 03:26:24;;;;;;;;;;;7.80;99.90;;;;;;5058706;28;19909;-75
2022/10/10 03:28:49;;;;;;;;;;;7.70;99.90;;;;;;5076593;28;19974;-74
2022/10/10 03:31:15;;;;;;;;;;;7.60;99.90;;;;;;5059115;28;19955;-73
2022/10/10 03:33:40;;;;;;;;;;;7.60;99.90;;;;;;5076615;28;19905;-75
2022/10/10 03:36:06;;;;;;;;;;;7.50;99.90;;;;;;5058947;28;19911;-75
2022/10/10 03:38:31;;;;;;;;;;;7.50;99.90;;;;;;5058639;28;19904;-75
2022/10/10 03:40:57;;;;;;;;;;;7.40;99.90;;;;;;5076462;28;19999;-74
2022/10/10 03:43:22;;;;;;;;;;;7.40;99.90;;;;;;5058613;28;19953;-75
2022/10/10 03:45:48;;;;;;;;;;;7.30;99.90;;;;;;5058396;28;19904;-74
2022/10/10 03:48:13;;;;;;;;;;;7.30;99.90;;;;;;5076222;28;19904;-74
2022/10/10 03:50:39;;;;;;;;;;;7.30;99.90;;;;;;5076126;28;19919;-74
2022/10/10 03:53:04;;;;;;;;;;;7.20;99.90;;;;;;5058246;28;19991;-74
2022/10/10 03:55:30;;;;;;;;;;;7.20;99.90;;;;;;5076241;28;19911;-75
2022/10/10 03:57:55;;;;;;;;;;;7.20;99.90;;;;;;5076111;28;19911;-75
2022/10/10 04:00:21;;;;;;;;;;;7.20;99.90;;;;;;5076011;28;19944;-74
2022/10/10 04:02:46;;;;;;;;;;;7.20;99.90;;;;;;5057873;28;19912;-74
2022/10/10 04:05:12;;;;;;;;;;;7.10;99.90;;;;;;5057988;28;20257;-74
2022/10/10 04:07:37;;;;;;;;;;;7.10;99.90;;;;;;5075949;28;19905;-74
2022/10/10 04:10:03;;;;;;;;;;;7.10;99.90;;;;;;5057842;28;20335;-75
2022/10/10 04:12:28;;;;;;;;;;;7.10;99.90;;;;;;5058815;28;20361;-75
2022/10/10 04:14:54;;;;;;;;;;;7.10;99.90;;;;;;5075758;28;19962;-74
2022/10/10 04:17:19;;;;;;;;;;;7.10;99.90;;;;;;5057778;28;19911;-74
2022/10/10 04:19:45;;;;;;;;;;;7.00;99.90;;;;;;5057601;28;19908;-74
2022/10/10 04:22:10;;;;;;;;;;;7.00;99.90;;;;;;5057142;28;19911;-74
2022/10/10 04:24:36;;;;;;;;;;;7.00;99.90;;;;;;5057679;28;20438;-74
2022/10/10 04:27:02;;;;;;;;;;;7.00;99.90;;;;;;5075668;28;19904;-74
2022/10/10 04:29:27;;;;;;;;;;;7.00;99.90;;;;;;5076075;28;20361;-75
2022/10/10 04:31:53;;;;;;;;;;;7.00;99.90;;;;;;5075417;28;19990;-75
2022/10/10 04:34:19;;;;;;;;;;;7.00;99.90;;;;;;5057795;28;19947;-75
2022/10/10 04:36:44;;;;;;;;;;;6.90;99.90;;;;;;5075282;28;19977;-74
2022/10/10 04:39:10;;;;;;;;;;;7.00;99.90;;;;;;5057490;28;19911;-75
2022/10/10 04:41:35;;;;;;;;;;;6.90;99.90;;;;;;5075207;28;20266;-75
2022/10/10 04:44:00;;;;;;;;;;;6.90;99.90;;;;;;5075315;28;19991;-75
2022/10/10 04:46:26;;;;;;;;;;;6.90;99.90;;;;;;5075680;28;19905;-76
2022/10/10 04:48:51;;;;;;;;;;;6.90;99.90;;;;;;5075026;28;19908;-76
2022/10/10 04:51:17;;;;;;;;;;;6.90;99.90;;;;;;5074850;28;19956;-76
2022/10/10 04:53:43;;;;;;;;;;;6.90;99.90;;;;;;5057058;28;20373;-76
2022/10/10 04:56:08;;;;;;;;;;;6.90;99.90;;;;;;5057078;28;19908;-76
2022/10/10 04:58:34;;;;;;;;;;;6.90;99.90;;;;;;5056981;28;20519;-76
2022/10/10 05:00:59;;;;;;;;;;;6.90;99.90;;;;;;5056870;28;19904;-76
2022/10/10 05:03:28;;;;;;;;;;;6.90;99.90;;;;;;5074790;28;20438;-73
2022/10/10 05:05:54;;;;;;;;;;;6.90;99.90;;;;;;5056966;28;19905;-73
2022/10/10 05:08:19;;;;;;;;;;;6.80;99.90;;;;;;5074793;28;19926;-72
2022/10/10 05:10:45;;;;;;;;;;;6.80;99.90;;;;;;5074565;28;19920;-73
2022/10/10 05:13:12;;;;;;;;;;;6.80;99.90;;;;;;5074613;28;20003;-72
2022/10/10 05:15:38;;;;;;;;;;;6.80;99.90;;;;;;5056736;28;19908;-73
2022/10/10 05:18:03;;;;;;;;;;;6.80;99.90;;;;;;5074930;28;19913;-73
2022/10/10 05:20:31;;;;;;;;;;;6.90;99.90;;;;;;5074432;28;19904;-73
2022/10/10 05:22:57;;;;;;;;;;;6.80;99.90;;;;;;5074449;28;19908;-72
2022/10/10 05:25:22;;;;;;;;;;;6.80;99.90;;;;;;5074364;28;20376;-72
2022/10/10 05:27:48;;;;;;;;;;;6.80;99.90;;;;;;5074337;28;19944;-72
2022/10/10 05:30:13;;;;;;;;;;;6.80;99.90;;;;;;5074678;28;19910;-72
2022/10/10 05:32:39;;;;;;;;;;;6.80;99.90;;;;;;5074193;28;19911;-75
2022/10/10 05:35:04;;;;;;;;;;;6.70;99.90;;;;;;5055838;28;19969;-75
2022/10/10 05:37:30;;;;;;;;;;;6.80;99.90;;;;;;5074327;28;19950;-74
2022/10/10 05:39:56;;;;;;;;;;;6.70;99.90;;;;;;5056180;28;19905;-74
2022/10/10 05:42:21;;;;;;;;;;;6.70;99.90;;;;;;5074148;28;19954;-74
2022/10/10 05:44:47;;;;;;;;;;;6.70;99.90;;;;;;5074262;28;19999;-74
2022/10/10 05:47:13;;;;;;;;;;;6.70;99.90;;;;;;5074183;28;20323;-75
2022/10/10 05:49:38;;;;;;;;;;;6.70;99.90;;;;;;5056058;28;19904;-74
2022/10/10 05:52:04;;;;;;;;;;;6.70;99.90;;;;;;5056237;28;19908;-73
2022/10/10 05:54:29;;;;;;;;;;;6.70;99.90;;;;;;5055893;28;20285;-74
2022/10/10 05:56:55;;;;;;;;;;;6.70;99.90;;;;;;5074136;28;19904;-73
2022/10/10 05:59:21;;;;;;;;;;;6.70;99.90;;;;;;5056222;28;19911;-73
2022/10/10 06:01:46;;;;;;;;;;;6.70;99.90;;;;;;5055939;28;19912;-74
2022/10/10 06:04:11;;;;;;;;;;;6.80;99.90;;;;;;5073796;28;19995;-73
2022/10/10 06:06:37;;;;;;;;;;;6.80;99.90;;;;;;5073827;28;19904;-73
2022/10/10 06:09:02;;;;;;;;;;;6.80;99.90;;;;;;5073792;28;19954;-73
2022/10/10 06:11:28;;;;;;;;;;;6.80;99.90;;;;;;5055576;28;20003;-76
2022/10/10 06:13:54;;;;;;;;;;;6.80;99.90;;;;;;5073738;28;19905;-78
2022/10/10 06:16:20;;;;;;;;;;;6.90;99.90;;;;;;5073948;28;20354;-77
2022/10/10 06:18:49;;;;;;;;;;;6.90;99.90;;;;;;5073676;28;20282;-77
2022/10/10 06:21:15;;;;;;;;;;;6.90;99.90;;;;;;5073597;28;19957;-78
2022/10/10 06:23:41;;;;;;;;;;;7.00;99.90;;;;;;5073629;28;19996;-77
2022/10/10 06:26:06;;;;;;;;;;;7.00;99.90;;;;;;5073667;28;20370;-78
2022/10/10 06:28:32;;;;;;;;;;;7.10;99.90;;;;;;5073623;28;19904;-77
2022/10/10 06:30:58;;;;;;;;;;;7.20;99.90;;;;;;5073508;28;19915;-78
2022/10/10 06:33:24;;;;;;;;;;;7.30;99.90;;;;;;5073599;28;19958;-76
2022/10/10 06:35:50;;;;;;;;;;;7.40;99.90;;;;;;5055624;28;20352;-77
2022/10/10 06:38:16;;;;;;;;;;;7.50;99.90;;;;;;5055586;28;19911;-77
2022/10/10 06:40:42;;;;;;;;;;;7.60;99.90;;;;;;5073373;28;19904;-78
2022/10/10 06:43:11;;;;;;;;;;;7.70;99.90;;;;;;5055519;28;19947;-77
2022/10/10 06:45:37;;;;;;;;;;;7.80;99.90;;;;;;5057625;28;19912;-77
2022/10/10 06:48:07;;;;;;;;;;;7.90;99.90;;;;;;5059518;28;19911;-78
2022/10/10 06:50:32;;;;;;;;;;;8.10;99.90;;;;;;5077479;28;19909;-77
2022/10/10 06:52:58;;;;;;;;;;;8.20;99.90;;;;;;5077368;28;20403;-77
2022/10/10 06:55:23;;;;;;;;;;;8.40;99.90;;;;;;5077344;28;19904;-77
2022/10/10 06:57:49;;;;;;;;;;;8.50;99.90;;;;;;5059233;28;19965;-77
2022/10/10 07:00:14;;;;;;;;;;;8.60;99.90;;;;;;5059149;28;19909;-74
2022/10/10 07:02:41;;;;;;;;;;;8.70;99.90;;;;;;5077229;28;20281;-74
2022/10/10 07:05:08;;;;;;;;;;;8.90;99.90;;;;;;5077112;28;19908;-74
2022/10/10 07:07:34;;;;;;;;;;;8.90;99.90;;;;;;5059461;28;19905;-74
2022/10/10 07:09:59;;;;;;;;;;;9.00;99.90;;;;;;5077547;28;20019;-74
2022/10/10 07:12:25;;;;;;;;;;;9.10;99.90;;;;;;5058979;28;20296;-75
2022/10/10 07:14:50;;;;;;;;;;;9.20;99.90;;;;;;5076861;28;19916;-74
2022/10/10 07:17:16;;;;;;;;;;;9.30;99.90;;;;;;5076885;28;19904;-74
2022/10/10 07:19:41;;;;;;;;;;;9.40;99.90;;;;;;5076821;28;20316;-74
2022/10/10 07:22:06;;;;;;;;;;;9.50;99.90;;;;;;5076795;28;19927;-74
2022/10/10 07:24:32;;;;;;;;;;;9.60;99.90;;;;;;5077252;28;19905;-74
2022/10/10 07:26:57;;;;;;;;;;;9.70;99.90;;;;;;5058877;28;19911;-74
2022/10/10 07:29:23;;;;;;;;;;;9.90;99.90;;;;;;5058874;28;20326;-74
2022/10/10 07:31:49;;;;;;;;;;;10.10;99.90;;;;;;5058570;28;19908;-74
2022/10/10 07:34:14;;;;;;;;;;;10.20;99.90;;;;;;5058618;28;19908;-74
2022/10/10 07:36:40;;;;;;;;;;;10.40;99.90;;;;;;5076536;28;19905;-74
2022/10/10 07:39:07;;;;;;;;;;;10.60;99.90;;;;;;5076333;28;19905;-74
2022/10/10 07:41:32;;;;;;;;;;;10.70;99.90;;;;;;5058497;28;19911;-75
2022/10/10 07:43:57;;;;;;;;;;;10.80;99.90;;;;;;5076292;28;19943;-75
2022/10/10 07:46:29;;;;;;;;;;;10.80;99.90;;;;;;5076241;28;19905;-75
2022/10/10 07:48:54;;;;;;;;;;;11.10;99.90;;;;;;5058252;28;19918;-75
2022/10/10 07:51:20;;;;;;;;;;;10.90;99.90;;;;;;5058122;28;20322;-75
2022/10/10 07:53:45;;;;;;;;;;;11.00;99.90;;;;;;5058179;28;19912;-75
2022/10/10 07:56:11;;;;;;;;;;;11.10;99.90;;;;;;5057714;28;20292;-75
2022/10/10 07:58:36;;;;;;;;;;;11.20;99.90;;;;;;5075594;28;19904;-75
2022/10/10 08:01:03;;;;;;;;;;;11.30;99.90;;;;;;5075819;28;20303;-75
2022/10/10 08:03:29;;;;;;;;;;;11.60;99.90;;;;;;5075948;28;19914;-74
2022/10/10 08:05:54;;;;;;;;;;;11.80;99.90;;;;;;5075858;28;19923;-75
2022/10/10 08:08:19;;;;;;;;;;;12.00;99.90;;;;;;5075775;28;19936;-75
2022/10/10 08:10:45;;;;;;;;;;;12.30;99.90;;;;;;5076233;28;19908;-75
2022/10/10 08:13:10;;;;;;;;;;;12.60;99.90;;;;;;5075738;28;20002;-75
2022/10/10 08:15:38;;;;;;;;;;;12.80;99.90;;;;;;5076220;28;19905;-75
2022/10/10 08:18:03;;;;;;;;;;;13.00;99.90;;;;;;5057619;28;19904;-75
2022/10/10 08:20:29;;;;;;;;;;;13.20;99.90;;;;;;5075562;28;19912;-75
2022/10/10 08:22:54;;;;;;;;;;;13.50;99.90;;;;;;5075514;28;19908;-75
2022/10/10 08:25:19;;;;;;;;;;;13.70;99.90;;;;;;5075506;28;19905;-74
2022/10/10 08:27:45;;;;;;;;;;;13.90;99.90;;;;;;5075420;28;19912;-74
2022/10/10 08:30:11;;;;;;;;;;;14.10;99.90;;;;;;5075205;28;20273;-74
2022/10/10 08:32:36;;;;;;;;;;;14.10;99.90;;;;;;5057385;28;19908;-74
2022/10/10 08:35:01;;;;;;;;;;;14.10;99.90;;;;;;5075401;28;19904;-75
2022/10/10 08:37:27;;;;;;;;;;;14.00;99.90;;;;;;5075808;28;19954;-74
2022/10/10 08:39:53;;;;;;;;;;;14.10;99.90;;;;;;5057408;28;19904;-75
2022/10/10 08:42:26;;;;;;;;;;;14.00;99.90;;;;;;5075070;28;20325;-75
2022/10/10 08:44:54;;;;;;;;;;;13.90;99.90;;;;;;5057190;28;19960;-75
2022/10/10 08:47:19;;;;;;;;;;;13.90;99.90;;;;;;5057122;28;19905;-75
2022/10/10 08:49:48;;;;;;;;;;;13.80;99.90;;;;;;5056877;28;19953;-74
2022/10/10 08:52:20;;;;;;;;;;;13.80;99.90;;;;;;5056916;28;20369;-75
2022/10/10 08:54:47;;;;;;;;;;;13.80;99.90;;;;;;5075491;28;19994;-75
2022/10/10 08:57:21;;;;;;;;;;;13.70;99.90;;;;;;5074773;28;20375;-75
2022/10/10 08:59:46;;;;;;;;;;;13.80;99.90;;;;;;5074648;28;19951;-75
2022/10/10 09:02:22;;;;;;;;;;;13.80;99.90;;;;;;5074552;28;20399;-75
2022/10/10 09:04:48;;;;;;;;;;;13.70;99.90;;;;;;5075238;28;20361;-75
2022/10/10 09:07:23;;;;;;;;;;;13.70;99.90;;;;;;5056650;28;19966;-75
2022/10/10 09:09:52;;;;;;;;;;;13.80;99.90;;;;;;5056466;28;19911;-75
2022/10/10 09:12:44;;;;;;;;;;;13.80;99.90;;;;;;5056847;28;19912;-75
2022/10/10 09:15:18;;;;;;;;;;;13.70;99.90;;;;;;5056568;28;19952;-74
2022/10/10 09:17:43;;;;;;;;;;;13.70;99.90;;;;;;5074481;28;19911;-74
2022/10/10 09:20:09;;;;;;;;;;;13.80;99.90;;;;;;5056404;28;19991;-74
2022/10/10 09:22:40;;;;;;;;;;;13.80;99.90;;;;;;5074227;28;19944;-75
2022/10/10 09:25:18;;;;;;;;;;;13.80;99.90;;;;;;5074387;28;20287;-75
2022/10/10 09:27:46;;;;;;;;;;;13.80;99.90;;;;;;5056312;28;19909;-74
2022/10/10 09:30:18;;;;;;;;;;;13.90;99.90;;;;;;5074002;28;19908;-74
2022/10/10 09:32:57;;;;;;;;;;;13.90;99.90;;;;;;5074137;28;20284;-74
2022/10/10 09:35:33;;;;;;;;;;;14.00;99.90;;;;;;5056221;28;19908;-74
2022/10/10 09:38:09;;;;;;;;;;;14.10;99.90;;;;;;5056127;28;19911;-74
2022/10/10 09:40:37;;;;;;;;;;;14.20;99.90;;;;;;5074253;28;19962;-74
2022/10/10 09:43:19;;;;;;;;;;;14.30;99.90;;;;;;5056110;28;19995;-74
2022/10/10 09:45:47;;;;;;;;;;;14.40;99.90;;;;;;5073938;28;20271;-74
2022/10/10 09:48:13;;;;;;;;;;;14.40;99.90;;;;;;5074462;28;19912;-74
2022/10/10 09:50:38;;;;;;;;;;;14.50;99.90;;;;;;5073715;28;19909;-74
2022/10/10 09:53:04;;;;;;;;;;;14.60;99.90;;;;;;5073831;28;20017;-74
2022/10/10 09:55:32;;;;;;;;;;;14.80;99.90;;;;;;5073790;28;19927;-74
2022/10/10 09:58:02;;;;;;;;;;;15.00;99.90;;;;;;5074388;28;19912;-73
2022/10/10 10:00:32;;;;;;;;;;;15.20;99.90;;;;;;5073587;28;19904;-73
2022/10/10 10:03:04;;;;;;;;;;;15.20;99.90;;;;;;5063959;23;19920;-78
2022/10/10 10:07:07;;;;;;;6.95;1.92;;;16.40;99.90;;;;;;5112200;27;20649;-75
2022/10/10 10:09:33;;;;;;;6.22;2.13;;;15.10;99.90;;;;;;5111637;28;20020;-75
2022/10/10 10:11:59;;;;;;;4.07;1.65;;;15.20;99.90;;;;;;5109834;28;20474;-75
2022/10/10 10:14:28;;;;;;;9.20;1.80;;;15.40;99.90;;;;;;5111190;28;20382;-75
2022/10/10 10:17:04;;;;;;;4.63;1.92;;;15.50;99.90;;;;;;5111073;28;20051;-75
2022/10/10 10:19:35;;;;;;;5.70;1.80;;;15.60;99.90;;;;;;5109653;28;20428;-75
2022/10/10 10:22:01;;;;;;;6.88;2.25;;;15.60;99.90;;;;;;5110831;28;20397;-75
2022/10/10 10:24:35;;;;;;;5.10;0.77;;;15.70;99.90;;;;;;5110857;28;20062;-75
2022/10/10 10:27:18;;;;;;;4.85;1.95;;;15.70;99.90;;;;;;5110836;28;20031;-75
2022/10/10 10:29:55;;;;;;;5.05;2.25;;;15.90;99.90;;;;;;5110788;28;20032;-74
2022/10/10 10:32:51;;;;;;;6.63;1.75;;;15.90;99.90;;;;;;5109380;28;20047;-75
2022/10/10 10:35:52;;;;;;;6.43;1.75;;;15.90;99.90;;;;;;5111239;28;20036;-75
2022/10/10 10:38:23;;;;;;;6.35;1.95;;;15.90;99.90;;;;;;5098366;28;20110;-75
2022/10/10 10:40:56;;;;;;;4.97;1.83;;;15.80;99.90;;;;;;5110492;28;20028;-75
2022/10/10 10:43:22;;;;;;;7.38;2.50;;;15.70;99.90;;;;;;5109212;28;20035;-75
2022/10/10 10:46:06;;;;;;;4.90;1.85;;;15.60;99.90;;;;;;5110697;28;20027;-75
2022/10/10 10:48:46;;;;;;;6.00;1.98;;;15.50;99.90;;;;;;5109163;28;20039;-75
2022/10/10 10:51:36;;;;;;;8.13;2.53;;;15.60;99.90;;;;;;5109113;28;20047;-75
2022/10/10 10:54:07;;;;;;;8.55;3.05;;;15.90;99.90;;;;;;5110684;28;20024;-75
2022/10/10 10:57:16;;;;;;;4.15;1.45;;;16.20;99.90;;;;;;5109084;28;20024;-75
2022/10/10 11:00:01;;;;;;;5.78;1.60;;;16.40;99.90;;;;;;5099602;28;20052;-75
2022/10/10 11:02:52;;;;;;;3.42;1.63;;;16.60;99.90;;;;;;5110082;28;20100;-75
2022/10/10 11:05:23;;;;;;;10.13;2.25;;;16.60;99.90;;;;;;5109860;28;20036;-75
2022/10/10 11:07:57;;;;;;;8.43;2.22;;;16.40;99.90;;;;;;5110545;28;20028;-75
2022/10/10 11:10:40;;;;;;;5.82;2.45;;;16.40;99.90;;;;;;5109994;28;20062;-74
2022/10/10 11:13:38;;;;;;;7.45;1.98;;;16.30;99.90;;;;;;5109891;28;20028;-74
2022/10/10 11:16:09;;;;;;;5.00;1.92;;;16.30;99.90;;;;;;5108634;28;20106;-75
2022/10/10 11:18:46;;;;;;;6.35;2.65;;;16.50;99.90;;;;;;5096569;28;20162;-74
2022/10/10 11:21:22;;;;;;;10.23;2.08;;;16.50;99.90;;;;;;5096665;28;20378;-74
2022/10/10 11:23:56;;;;;;;6.65;1.92;;;16.50;99.90;;;;;;5095294;28;20489;-76
2022/10/10 11:26:45;;;;;;;6.93;1.95;;;16.40;99.90;;;;;;5094720;28;20028;-76
2022/10/10 11:29:18;;;;;;;6.68;2.28;;;16.30;99.90;;;;;;5096087;28;20482;-76
2022/10/10 11:31:49;;;;;;;10.40;2.10;;;16.20;99.90;;;;;;5095938;28;20043;-76
2022/10/10 11:34:25;;;;;;;6.15;1.67;;;16.10;99.90;;;;;;5096548;28;20016;-76
2022/10/10 11:36:53;;;;;;;9.52;2.60;;;16.00;99.90;;;;;;5094760;28;20032;-76
2022/10/10 11:39:22;;;;;;;8.88;2.63;;;15.90;99.90;;;;;;5095861;28;20028;-76
2022/10/10 11:41:58;;;;;;;6.90;1.92;;;15.90;99.90;;;;;;5094449;28;20020;-76
2022/10/10 11:44:33;;;;;;;7.95;1.90;;;15.90;99.90;;;;;;5096389;28;20024;-74
2022/10/10 11:47:08;;;;;;;3.17;1.73;;;15.90;99.90;;;;;;5096053;28;20472;-74
2022/10/10 11:49:54;;;;;;;5.75;2.00;;;15.80;99.90;;;;;;5094388;28;20024;-74
2022/10/10 11:52:30;;;;;;;9.32;2.78;;;15.70;99.90;;;;;;5094362;28;20024;-74
2022/10/10 11:55:04;;;;;;;5.82;1.98;;;15.60;99.90;;;;;;5094267;28;20023;-74
2022/10/10 11:58:16;;;;;;;6.20;2.20;;;15.60;99.90;;;;;;5095631;28;20478;-73
2022/10/10 12:00:47;;;;;;;48.78;7.78;;;15.50;99.90;;;;;;5095473;28;20020;-74
2022/10/10 12:03:13;;;;;;;15.23;3.65;;;15.50;99.90;;;;;;5094173;28;20466;-75
2022/10/10 12:05:45;;;;;;;12.25;3.53;;;15.50;99.90;;;;;;5093914;28;20055;-74
2022/10/10 12:08:27;;;;;;;8.95;2.42;;;15.50;99.90;;;;;;5095356;28;20024;-75
2022/10/10 12:11:04;;;;;;;7.72;2.78;;;15.50;99.90;;;;;;5095477;28;20017;-73
2022/10/10 12:13:55;;;;;;;8.65;2.10;;;15.40;99.90;;;;;;5095305;28;20394;-75
2022/10/10 12:16:24;;;;;;;8.18;3.10;;;15.40;99.90;;;;;;5095300;28;20058;-75
2022/10/10 12:19:22;;;;;;;6.32;2.70;;;15.50;99.90;;;;;;5093857;28;20471;-75
2022/10/10 12:21:54;;;;;;;9.15;3.08;;;15.40;99.90;;;;;;5094977;28;20024;-75
2022/10/10 12:24:20;;;;;;;7.20;3.28;;;15.50;99.90;;;;;;5094985;28;20051;-74
2022/10/10 12:27:05;;;;;;;9.18;2.80;;;15.30;99.90;;;;;;5094855;28;20503;-75
2022/10/10 12:29:46;;;;;;;11.65;3.42;;;15.30;99.90;;;;;;5093644;28;20020;-74
2022/10/10 12:32:16;;;;;;;5.70;2.05;;;15.30;99.90;;;;;;5095262;28;20024;-75
2022/10/10 12:34:55;;;;;;;6.60;2.30;;;15.30;99.90;;;;;;5093539;28;20107;-75
2022/10/10 12:37:29;;;;;;;;;;;15.30;99.90;;;;;;5095145;28;20031;-75
2022/10/10 12:40:17;;;;;;;4.47;1.42;;;15.20;99.90;;;;;;5095126;28;19904;-75
2022/10/10 12:42:45;;;;;;;4.22;1.77;;;15.10;99.90;;;;;;5095246;28;20028;-75
2022/10/10 12:45:29;;;;;;;7.25;1.23;;;15.20;99.90;;;;;;5094441;28;20071;-75
2022/10/10 12:47:55;;;;;;;5.75;1.48;;;15.10;99.90;;;;;;5093197;28;20479;-75
2022/10/10 12:50:31;;;;;;;7.28;1.85;;;15.00;99.90;;;;;;5094461;28;20020;-75
2022/10/10 12:52:59;;;;;;;4.85;1.35;;;14.90;99.90;;;;;;5094352;28;20073;-75
2022/10/10 12:55:30;;;;;;;4.93;1.20;;;14.90;99.90;;;;;;5094448;28;20036;-75
2022/10/10 12:58:00;;;;;;;5.03;1.10;;;14.80;99.90;;;;;;5094423;28;20518;-75
2022/10/10 13:00:42;;;;;;;5.57;0.93;;;14.70;99.90;;;;;;5094358;28;20024;-79
2022/10/10 13:03:18;;;;;;;7.00;0.95;;;14.80;99.90;;;;;;5092974;28;20073;-76
2022/10/10 13:05:45;;;;;;;6.68;0.98;;;14.70;99.90;;;;;;5092736;28;20379;-77
2022/10/10 13:08:17;;;;;;;5.07;1.33;;;14.60;99.90;;;;;;5093562;28;20028;-78
2022/10/10 13:11:03;;;;;;;8.10;0.80;;;14.60;99.90;;;;;;5094228;28;20390;-77
2022/10/10 13:13:28;;;;;;;4.72;0.98;;;14.60;99.90;;;;;;5094714;28;20046;-76
2022/10/10 13:15:56;;;;;;;5.72;0.70;;;14.60;99.90;;;;;;5094980;28;20028;-77
2022/10/10 13:18:47;;;;;;;2.80;0.50;;;14.50;99.90;;;;;;5093021;28;20364;-77
2022/10/10 13:21:14;;;;;;;3.13;0.35;;;14.60;99.90;;;;;;5095006;28;20036;-78
2022/10/10 13:23:43;;;;;;;0.45;0.10;;;14.60;99.90;;;;;;5094628;28;20028;-77
2022/10/10 13:26:37;;;;;;;4.45;0.20;;;14.60;99.90;;;;;;5093517;28;20030;-77
2022/10/10 13:29:32;;;;;;;1.98;0.43;;;14.60;99.90;;;;;;5093578;28;20058;-77
2022/10/10 13:32:02;;;;;;;1.98;0.00;;;14.60;99.90;;;;;;5096273;28;20020;-78
2022/10/10 13:34:31;;;;;;;0.90;0.00;;;14.60;99.90;;;;;;5093550;28;20017;-78
2022/10/10 13:37:00;;;;;;;0.85;0.00;;;14.60;99.90;;;;;;5094326;28;20024;-77
2022/10/10 13:39:27;;;;;;;0.30;0.00;;;14.50;99.90;;;;;;5093898;28;20023;-78
2022/10/10 13:41:54;;;;;;;0.98;0.00;;;14.60;99.90;;;;;;5092321;28;20501;-75
2022/10/10 13:44:22;;;;;;;0.00;0.00;;;14.30;99.90;;;;;;5092261;28;20031;-75
2022/10/10 13:46:47;;;;;;;0.70;0.00;;;14.10;99.90;;;;;;5092245;28;20032;-75
2022/10/10 13:49:29;;;;;;;1.95;0.20;;;14.00;99.90;;;;;;5093411;28;20016;-75
2022/10/10 13:52:18;;;;;;;0.75;0.00;;;13.90;99.90;;;;;;5093484;28;20023;-75
2022/10/10 13:54:49;;;;;;;1.50;0.00;;;13.80;99.90;;;;;;5093405;28;20034;-74
2022/10/10 13:57:21;;;;;;;0.20;0.00;;;13.80;99.90;;;;;;5093370;28;20019;-74
2022/10/10 13:59:58;;;;;;;1.20;0.20;;;13.80;99.90;;;;;;5092166;28;20070;-73
2022/10/10 14:02:31;;;;;;;0.20;0.00;;;13.70;99.90;;;;;;5092152;28;20058;-73
2022/10/10 14:04:57;;;;;;;1.38;0.00;;;13.60;99.90;;;;;;5091835;28;20064;-73
2022/10/10 14:07:26;;;;;;;2.92;0.00;;;13.60;99.90;;;;;;5092105;28;20072;-73
2022/10/10 14:09:51;;;;;;;;;;;13.50;99.90;;;;;;5093663;28;20020;-73
2022/10/10 14:12:33;;;;;;;1.48;0.20;;;13.50;99.90;;;;;;5093365;28;19912;-73